Airfield :
LOGIN :

Register | Disclaimer

   EN    FR    IT 

 










Legend :    VFR   Marginal VFR   IFR   Intensive IFR   Very Intensive IFR
Visi :
Ceiling :
>= 8 km
>= 3000ft
5 to 8 km
1000 to 3000 ft
1500m to 5 km
500 to 1000 ft
800 to 1500m
200 to 500 ft
< 800m
< 200 ft
Symbols :   Thunderstorms  Fog  Heavy snow  Heavy precipitations  Wind > 20 kt
SIGMETs :     Misc.  Thunderstorms  Icing  Turbulence  Mountain Waves  Volcanic Ashes






- Airport Elevation : 3381 ft
- IATA code : KYA


LTAN - Konya AB

CURRENT METAR :
  • 021322Z 24013G30KT 200V280 9999 FEW030CB BKN035 15/03 Q1007 RETS BECMG TL1400 16008KT TEMPO -TSRA RMK RWY19 27009KT 240V300

EXPIRED METARs :
  • 021250Z 16012KT 120V200 9999 TS FEW030CB BKN035 15/04 Q1007 TEMPO -TSRA
  • 021221Z 15013KT 9999 TS FEW030CB BKN035 15/05 Q1007 TEMPO -TSRA RMK RWY19 16011KT 130V200
  • 021150Z 17012KT 140V200 9999 FEW030CB BKN040 BKN100 14/05 Q1008 RESHRA TEMPO -TSRA
  • 021122Z 16010KT 120V180 9999 FEW030CB SCT040 BKN100 14/06 Q1009 RESHRA TEMPO -TSRA RMK RWY19 19003KT 140V290
  • 021050Z 16007KT 120V200 9999 -SHRA FEW030CB SCT040 BKN100 13/05 Q1009 TEMPO 18018KT -TSRA
  • 021045Z 17007KT 120V200 9999 -SHRA FEW025CB SCT030 BKN080 13/06 Q1009 TEMPO 18018KT -TSRA RMK RWY19 17008KT 140V230

TAF TAF LTAN
Valid from the 02 at 12:00 until the 02 at 21:00 UTC


021040Z 0212/0221 16008KT 9999 SCT040 BKN100
TEMPO 0212/0215 18018KT -TSRA FEW030CB BKN035



MET'MAP, your aeronautical weather chart ! - Copyright ORBIFLY December 2007 - Disclaimer

ORBIFLY MET'MAP TEAM :

Programming & Development : Alexandra Zaïnal
Concept & original design : Baudouin d'Aumeries
Assistance for programming : Marc-Olivier Méhu
Technical & hardware support : Manuel Goepfert

Contact : metmap@orbifly.com




SOURCES & CREDITS :

   NOAA